CheckWX is a tool to help pilots better visualize weather data.  It is not intended as a substitute for an official pre-flight weather briefing.

13:12:20 UTC

LJCE METAR
Cerklje Airport
Slovenia
Current

42 mins ago

LJCE 061230Z VRB02KT 0700 R09/1100D FZFG OVC002 M00/M00 Q1022 RMK RED
Observed
Dec-6 @ 12:30 UTC
Wind
  • Variable at 2 KTS
Visibility
700 meters
Flight Rules
LIFR
Conditions
Freezing Fog
Cloud Levels
  • Overcast at 200' AGL
Temperature
C / 32°F
Dewpoint
C / 32°F
Humidity
100%
Altimeter
30.18" Hg
Pressure
1021.92 hPa
Previous

1 hour ago

LJCE 061200Z VRB02KT 0700 FZFG OVC002 M01/M01 Q1023 RMK RED
Observed
Dec-6 @ 12:00 UTC
Wind
  • Variable at 2 KTS
Visibility
700 meters
Flight Rules
LIFR
Conditions
Freezing Fog
Cloud Levels
  • Overcast at 200' AGL
Temperature
-1°C / 30°F
Dewpoint
-1°C / 30°F
Humidity
100%
Altimeter
30.21" Hg
Pressure
1022.92 hPa
Previous

2 hours ago

LJCE 061130Z VRB01KT 0500 R09/0900U FZFG VV002 M01/M01 Q1023 RMK RED
Observed
Dec-6 @ 11:30 UTC
Wind
  • Variable at 1 KTS
Visibility
500 meters
Flight Rules
LIFR
Conditions
Freezing Fog
Cloud Levels
  • Vertical visibility at 200' AGL
Temperature
-1°C / 30°F
Dewpoint
-1°C / 30°F
Humidity
100%
Altimeter
30.21" Hg
Pressure
1022.92 hPa